Time;durP1;ratioP1;P1;durP2;ratioP2;P2;SDS_P1;SDS_P2;PMS_P1;PMS_P2;Temp;Humidity;BMP_temperature;BMP_pressure;BME280_temperature;BME280_humidity;BME280_pressure;Samples;Min_cycle;Max_cycle;Signal;HPM_P1;HPM_P2
2022/03/01 00:01:52;;;;;;;;;;;;;;;;;;5055454;28;19925;-80
2022/03/01 00:04:19;;;;;;;;;;;4.30;94.90;;;;;;5050940;28;20406;-80
2022/03/01 00:06:46;;;;;;;;;;;;;;;;;;5022544;28;20222;-80
2022/03/01 00:09:13;;;;;;;;;;;4.10;95.00;;;;;;5048920;28;19990;-81
2022/03/01 00:11:41;;;;;;;;;;;4.00;95.00;;;;;;5057210;28;19928;-81
2022/03/01 00:14:08;;;;;;;;;;;4.10;95.20;;;;;;5048008;28;20007;-81
2022/03/01 00:16:35;;;;;;;;;;;4.00;95.30;;;;;;5035355;28;19971;-81
2022/03/01 00:19:02;;;;;;;;;;;4.00;95.20;;;;;;5048526;28;19940;-81
2022/03/01 00:21:29;;;;;;;;;;;4.00;95.60;;;;;;5057621;28;20328;-81
2022/03/01 00:23:56;;;;;;;;;;;3.90;95.20;;;;;;5055240;28;19991;-82
2022/03/01 00:26:22;;;;;;;;;;;3.90;95.70;;;;;;5034224;28;19925;-81
2022/03/01 00:28:50;;;;;;;;;;;3.80;95.40;;;;;;5039752;28;20339;-81
2022/03/01 00:31:17;;;;;;;;;;;3.80;95.60;;;;;;5050002;28;20030;-81
2022/03/01 00:33:44;;;;;;;;;;;;;;;;;;5051938;28;19944;-81
2022/03/01 00:36:11;;;;;;;;;;;3.70;95.70;;;;;;5052290;28;19951;-81
2022/03/01 00:38:39;;;;;;;;;;;;;;;;;;5059733;28;19925;-80
2022/03/01 00:41:06;;;;;;;;;;;;;;;;;;5053268;28;19987;-81
2022/03/01 00:43:33;;;;;;;;;;;3.50;95.80;;;;;;5050657;28;20015;-81
2022/03/01 00:46:00;;;;;;;;;;;;;;;;;;5051608;28;19924;-81
2022/03/01 00:48:28;;;;;;;;;;;3.40;96.00;;;;;;5066030;28;19908;-80
2022/03/01 00:50:55;;;;;;;;;;;;;;;;;;5047108;28;19931;-81
2022/03/01 00:53:22;;;;;;;;;;;;;;;;;;5060914;28;19924;-81
2022/03/01 00:55:49;;;;;;;;;;;;;;;;;;5063200;28;20179;-81
2022/03/01 00:58:16;;;;;;;;;;;;;;;;;;5066154;28;19931;-80
2022/03/01 01:00:42;;;;;;;;;;;3.20;97.20;;;;;;5046620;28;19921;-81
2022/03/01 01:03:09;;;;;;;;;;;3.10;97.20;;;;;;5049249;28;19924;-81
2022/03/01 01:05:36;;;;;;;;;;;;;;;;;;5030830;28;20001;-81
2022/03/01 01:08:03;;;;;;;;;;;;;;;;;;5031332;28;19920;-81
2022/03/01 01:10:30;;;;;;;;;;;;;;;;;;5047704;28;20423;-81
2022/03/01 01:12:57;;;;;;;;;;;;;;;;;;5043406;28;19994;-81
2022/03/01 01:15:25;;;;;;;;;;;3.10;97.50;;;;;;5048873;28;19978;-81
2022/03/01 01:17:52;;;;;;;;;;;;;;;;;;5048372;28;19942;-81
2022/03/01 01:20:19;;;;;;;;;;;;;;;;;;5032051;28;20113;-81
2022/03/01 01:22:46;;;;;;;;;;;3.10;97.90;;;;;;5045792;28;20030;-81
2022/03/01 01:25:14;;;;;;;;;;;3.10;97.70;;;;;;5033976;28;19959;-81
2022/03/01 01:27:41;;;;;;;;;;;;;;;;;;5059949;28;19951;-81
2022/03/01 01:30:09;;;;;;;;;;;3.10;97.80;;;;;;5029950;28;19925;-81
2022/03/01 01:32:36;;;;;;;;;;;;;;;;;;5045514;28;19929;-80
2022/03/01 01:35:03;;;;;;;;;;;;;;;;;;5049491;28;19925;-80
2022/03/01 01:37:30;;;;;;;;;;;;;;;;;;5031650;28;20321;-81
2022/03/01 01:39:58;;;;;;;;;;;3.20;97.60;;;;;;5052198;28;19946;-81
2022/03/01 01:42:24;;;;;;;;;;;3.10;97.50;;;;;;5056348;28;19932;-81
2022/03/01 01:44:51;;;;;;;;;;;3.00;97.60;;;;;;5049176;28;19920;-81
2022/03/01 01:47:18;;;;;;;;;;;3.00;97.60;;;;;;5027026;28;19932;-81
2022/03/01 01:49:45;;;;;;;;;;;2.90;97.60;;;;;;5054962;28;19928;-81
2022/03/01 01:52:12;;;;;;;;;;;;;;;;;;5058702;28;20133;-81
2022/03/01 01:54:40;;;;;;;;;;;;;;;;;;5048534;28;19979;-81
2022/03/01 01:57:07;;;;;;;;;;;;;;;;;;5049327;28;19936;-81
2022/03/01 01:59:34;;;;;;;;;;;;;;;;;;5038986;28;19924;-82
2022/03/01 02:02:01;;;;;;;;;;;;;;;;;;5024896;28;19920;-81
2022/03/01 02:04:29;;;;;;;;;;;2.70;97.70;;;;;;5044925;28;19928;-81
2022/03/01 02:06:56;;;;;;;;;;;;;;;;;;5025834;28;19932;-81
2022/03/01 02:09:23;;;;;;;;;;;2.70;97.70;;;;;;5041030;28;19929;-81
2022/03/01 02:11:50;;;;;;;;;;;2.60;97.70;;;;;;5028877;28;19975;-81
2022/03/01 02:14:17;;;;;;;;;;;2.60;97.70;;;;;;5055983;28;19931;-83
2022/03/01 02:16:44;;;;;;;;;;;2.50;97.70;;;;;;5038594;28;19927;-81
2022/03/01 02:19:11;;;;;;;;;;;;;;;;;;5038761;28;20034;-81
2022/03/01 02:24:23;;;;;;;;;;;2.40;97.50;;;;;;5096468;27;19916;-76
2022/03/01 02:26:53;;;;;;;;;;;2.40;97.90;;;;;;5099059;28;20259;-74
2022/03/01 02:29:20;;;;;;;;;;;2.30;97.70;;;;;;5096012;28;19925;-75
2022/03/01 02:31:47;;;;;;;;;;;2.30;98.20;;;;;;5103573;28;19928;-74
2022/03/01 02:34:14;;;;;;;;;;;2.20;97.60;;;;;;5102771;28;20038;-74
2022/03/01 02:36:41;;;;;;;;;;;2.10;97.60;;;;;;5099564;28;19939;-74
2022/03/01 02:39:07;;;;;;;;;;;2.10;97.70;;;;;;5097558;28;19935;-76
2022/03/01 02:41:38;;;;;;;;;;;2.10;98.30;;;;;;5096048;28;20342;-75
2022/03/01 02:44:06;;;;;;;;;;;2.10;98.10;;;;;;5101014;28;19935;-74
2022/03/01 02:46:33;;;;;;;;;;;2.00;98.40;;;;;;5100146;28;19928;-75
2022/03/01 02:48:59;;;;;;;;;;;2.00;98.10;;;;;;5099244;28;19928;-75
2022/03/01 02:51:26;;;;;;;;;;;2.00;98.40;;;;;;5103843;28;19934;-76
2022/03/01 02:53:53;;;;;;;;;;;2.00;98.30;;;;;;5106991;28;19928;-74
2022/03/01 02:56:20;;;;;;;;;;;1.90;98.30;;;;;;5107313;28;19928;-76
2022/03/01 02:58:48;;;;;;;;;;;1.80;98.00;;;;;;5095520;28;19981;-75
2022/03/01 03:01:15;;;;;;;;;;;1.80;98.40;;;;;;5090503;28;19928;-75
2022/03/01 03:03:42;;;;;;;;;;;1.70;98.50;;;;;;5099438;28;19935;-75
2022/03/01 03:06:09;;;;;;;;;;;1.60;98.60;;;;;;5101360;28;19939;-76
2022/03/01 03:08:35;;;;;;;;;;;1.60;98.80;;;;;;5091269;28;19928;-75
2022/03/01 03:11:02;;;;;;;;;;;1.70;98.80;;;;;;5100047;28;20308;-74
2022/03/01 03:13:29;;;;;;;;;;;1.70;99.20;;;;;;5094398;28;20432;-75
2022/03/01 03:15:57;;;;;;;;;;;1.70;99.20;;;;;;5104766;28;19928;-76
2022/03/01 03:18:24;;;;;;;;;;;1.80;99.30;;;;;;5091413;28;19932;-76
2022/03/01 03:20:50;;;;;;;;;;;1.70;99.00;;;;;;5099754;28;19924;-75
2022/03/01 03:23:17;;;;;;;;;;;1.70;99.30;;;;;;5109740;28;19935;-76
2022/03/01 03:25:44;;;;;;;;;;;1.70;99.30;;;;;;5122220;28;20337;-75
2022/03/01 03:28:11;;;;;;;;;;;1.60;99.00;;;;;;5125788;28;19927;-75
2022/03/01 03:30:37;;;;;;;;;;;1.60;99.30;;;;;;5123399;27;19924;-74
2022/03/01 03:33:05;;;;;;;;;;;1.60;99.30;;;;;;5113607;28;20396;-74
2022/03/01 03:35:32;;;;;;;;;;;1.60;99.30;;;;;;5105911;27;19928;-75
2022/03/01 03:37:59;;;;;;;;;;;1.50;99.30;;;;;;5106182;28;20038;-74
2022/03/01 03:40:26;;;;;;;;;;;1.60;99.10;;;;;;5113457;28;19934;-73
2022/03/01 03:42:52;;;;;;;;;;;2.60;99.90;;;;;;5120611;28;19927;-74
2022/03/01 03:45:19;;;;;;;;;;;1.50;99.80;;;;;;5110424;28;19930;-75
2022/03/01 03:47:46;;;;;;;;;;;1.80;99.90;;;;;;5103982;28;19928;-74
2022/03/01 03:50:14;;;;;;;;;;;1.60;99.90;;;;;;5109779;28;19927;-74
2022/03/01 03:52:41;;;;;;;;;;;1.70;99.90;;;;;;5104959;28;19928;-74
2022/03/01 03:55:09;;;;;;;;;;;1.80;99.90;;;;;;5102500;28;19957;-74
2022/03/01 03:57:36;;;;;;;;;;;1.90;99.90;;;;;;5108590;28;19931;-74
2022/03/01 04:00:04;;;;;;;;;;;2.10;99.90;;;;;;5099276;28;19928;-75
2022/03/01 04:02:32;;;;;;;;;;;2.20;99.90;;;;;;5100541;27;20359;-75
2022/03/01 04:04:59;;;;;;;;;;;2.50;99.90;;;;;;5099609;28;19928;-75
2022/03/01 04:07:27;;;;;;;;;;;2.50;99.90;;;;;;5102210;28;20384;-74
2022/03/01 04:09:54;;;;;;;;;;;2.70;99.90;;;;;;5107623;28;19932;-74
2022/03/01 04:12:21;;;;;;;;;;;2.80;99.90;;;;;;5108850;28;19954;-75
2022/03/01 04:14:47;;;;;;;;;;;3.90;99.90;;;;;;5104710;28;19924;-74
2022/03/01 04:17:14;;;;;;;;;;;4.70;99.90;;;;;;5105525;28;19927;-75
2022/03/01 04:19:41;;;;;;;;;;;3.10;99.90;;;;;;5095608;28;19932;-75
2022/03/01 04:22:08;;;;;;;;;;;3.20;99.90;;;;;;5102641;28;19931;-75
2022/03/01 04:24:36;;;;;;;;;;;3.30;99.90;;;;;;5106997;28;20219;-75
2022/03/01 04:27:03;;;;;;;;;;;3.30;99.90;;;;;;5106550;28;19927;-75
2022/03/01 04:29:30;;;;;;;;;;;3.40;99.90;;;;;;5103201;28;19950;-75
2022/03/01 04:31:57;;;;;;;;;;;3.50;99.90;;;;;;5103426;28;19932;-74
2022/03/01 04:34:24;;;;;;;;;;;3.50;99.90;;;;;;5104652;28;19928;-74
2022/03/01 04:36:50;;;;;;;;;;;3.60;99.90;;;;;;5112066;28;19966;-74
2022/03/01 04:39:17;;;;;;;;;;;3.90;99.90;;;;;;5109415;28;19928;-74
2022/03/01 04:41:45;;;;;;;;;;;3.70;99.90;;;;;;5099296;28;19927;-74
2022/03/01 04:44:12;;;;;;;;;;;3.80;99.90;;;;;;5104235;28;19924;-74
2022/03/01 04:46:39;;;;;;;;;;;3.80;99.90;;;;;;5099652;28;19935;-75
2022/03/01 04:49:06;;;;;;;;;;;3.80;99.90;;;;;;5096351;28;20439;-74
2022/03/01 04:51:33;;;;;;;;;;;3.90;99.90;;;;;;5099222;28;19939;-74
2022/03/01 04:54:00;;;;;;;;;;;3.90;99.90;;;;;;5103570;28;19931;-75
2022/03/01 04:56:27;;;;;;;;;;;4.00;99.90;;;;;;5108883;28;20427;-76
2022/03/01 04:58:55;;;;;;;;;;;4.00;99.90;;;;;;5104589;28;19927;-76
2022/03/01 05:01:21;;;;;;;;;;;4.00;99.90;;;;;;5102377;28;20404;-75
2022/03/01 05:03:49;;;;;;;;;;;4.00;99.90;;;;;;5099025;28;19924;-76
2022/03/01 05:06:15;;;;;;;;;;;4.00;99.90;;;;;;5097841;28;19928;-75
2022/03/01 05:08:42;;;;;;;;;;;4.10;99.90;;;;;;5100484;28;19934;-75
2022/03/01 05:11:09;;;;;;;;;;;4.10;99.90;;;;;;5099870;28;19924;-75
2022/03/01 05:13:36;;;;;;;;;;;4.10;99.90;;;;;;5100033;28;20368;-74
2022/03/01 05:16:04;;;;;;;;;;;4.10;99.90;;;;;;5104934;28;19956;-75
2022/03/01 05:18:31;;;;;;;;;;;4.20;99.90;;;;;;5103645;28;19939;-74
2022/03/01 05:20:57;;;;;;;;;;;4.30;99.90;;;;;;5095700;28;19928;-74
2022/03/01 05:23:24;;;;;;;;;;;4.30;99.90;;;;;;5100851;28;19927;-75
2022/03/01 05:25:51;;;;;;;;;;;4.40;99.90;;;;;;5097432;28;19996;-74
2022/03/01 05:28:17;;;;;;;;;;;4.40;99.90;;;;;;5107266;28;20534;-74
2022/03/01 05:30:44;;;;;;;;;;;4.40;99.90;;;;;;5115531;28;19935;-75
2022/03/01 05:33:12;;;;;;;;;;;4.50;99.90;;;;;;5111925;28;20047;-75
2022/03/01 05:35:39;;;;;;;;;;;4.50;99.90;;;;;;5097330;28;19924;-74
2022/03/01 05:38:09;;;;;;;;;;;4.50;99.90;;;;;;5099119;28;19946;-74
2022/03/01 05:40:36;;;;;;;;;;;4.50;99.90;;;;;;5095034;28;19939;-74
2022/03/01 05:43:05;;;;;;;;;;;4.50;99.90;;;;;;5098788;28;20422;-75
2022/03/01 05:45:32;;;;;;;;;;;4.60;99.90;;;;;;5098159;28;20292;-76
2022/03/01 05:47:59;;;;;;;;;;;4.60;99.90;;;;;;5101623;28;19928;-75
2022/03/01 05:50:28;;;;;;;;;;;4.60;99.90;;;;;;5099078;28;19932;-74
2022/03/01 05:52:54;;;;;;;;;;;4.60;99.90;;;;;;5102615;28;20042;-76
2022/03/01 05:55:21;;;;;;;;;;;4.60;99.90;;;;;;5100249;28;19935;-75
2022/03/01 05:57:48;;;;;;;;;;;4.70;99.90;;;;;;5106534;28;19924;-76
2022/03/01 06:00:16;;;;;;;;;;;4.70;99.90;;;;;;5104806;28;19927;-75
2022/03/01 06:02:45;;;;;;;;;;;4.70;99.90;;;;;;5103118;28;19928;-75
2022/03/01 06:05:12;;;;;;;;;;;4.70;99.90;;;;;;5105525;28;20335;-76
2022/03/01 06:07:40;;;;;;;;;;;4.70;99.90;;;;;;5102035;28;20006;-75
2022/03/01 06:10:07;;;;;;;;;;;4.70;99.90;;;;;;5102419;28;19951;-74
2022/03/01 06:12:34;;;;;;;;;;;4.70;99.90;;;;;;5096251;28;19931;-75
2022/03/01 06:15:01;;;;;;;;;;;4.70;99.90;;;;;;5098411;28;19928;-78
2022/03/01 06:17:28;;;;;;;;;;;4.70;99.90;;;;;;5105738;28;19931;-75
2022/03/01 06:19:54;;;;;;;;;;;4.70;99.90;;;;;;5109138;28;20288;-78
2022/03/01 06:22:21;;;;;;;;;;;4.70;99.90;;;;;;5107926;28;19955;-74
2022/03/01 06:24:49;;;;;;;;;;;4.80;99.90;;;;;;5099844;28;19923;-75
2022/03/01 06:27:16;;;;;;;;;;;4.80;99.90;;;;;;5094646;28;20331;-74
2022/03/01 06:29:43;;;;;;;;;;;4.90;99.90;;;;;;5109217;28;19934;-79
2022/03/01 06:32:10;;;;;;;;;;;5.60;99.90;;;;;;5100131;28;19963;-75
2022/03/01 06:34:37;;;;;;;;;;;4.90;99.90;;;;;;5104053;28;19974;-76
2022/03/01 06:37:04;;;;;;;;;;;4.90;99.90;;;;;;5097549;28;19928;-76
2022/03/01 06:39:32;;;;;;;;;;;4.90;99.90;;;;;;5103512;28;20304;-76
2022/03/01 06:42:01;;;;;;;;;;;4.90;99.90;;;;;;5094796;28;19970;-76
2022/03/01 06:44:27;;;;;;;;;;;5.00;99.90;;;;;;5087043;28;19928;-77
2022/03/01 06:46:54;;;;;;;;;;;5.00;99.90;;;;;;5092258;28;19950;-76
2022/03/01 06:49:21;;;;;;;;;;;5.10;99.90;;;;;;5098502;28;19939;-76
2022/03/01 06:51:47;;;;;;;;;;;5.20;99.90;;;;;;5088545;28;20411;-76
2022/03/01 06:54:14;;;;;;;;;;;5.60;99.90;;;;;;5094023;28;20363;-76
2022/03/01 06:56:41;;;;;;;;;;;5.90;99.90;;;;;;5100320;28;19932;-76
2022/03/01 06:59:09;;;;;;;;;;;6.30;99.90;;;;;;5089830;28;19939;-77
2022/03/01 07:01:36;;;;;;;;;;;6.40;99.90;;;;;;5090262;28;20502;-76
2022/03/01 07:04:02;;;;;;;;;;;6.40;99.10;;;;;;5100010;28;19938;-76
2022/03/01 07:06:29;;;;;;;;;;;6.30;99.20;;;;;;5097839;28;20023;-77
2022/03/01 07:08:56;;;;;;;;;;;6.20;99.30;;;;;;5105891;28;20085;-77
2022/03/01 07:11:23;;;;;;;;;;;7.30;99.60;;;;;;5109916;28;20341;-77
2022/03/01 07:13:49;;;;;;;;;;;6.20;99.20;;;;;;5107254;28;19955;-76
2022/03/01 07:16:18;;;;;;;;;;;8.40;99.90;;;;;;5106471;28;19932;-77
2022/03/01 07:18:45;;;;;;;;;;;6.20;99.20;;;;;;5109513;28;19934;-77
2022/03/01 07:21:11;;;;;;;;;;;6.20;99.40;;;;;;5114107;28;19923;-76
2022/03/01 07:23:39;;;;;;;;;;;6.20;99.50;;;;;;5109193;28;20414;-76
2022/03/01 07:26:06;;;;;;;;;;;6.30;99.70;;;;;;5111541;28;20305;-75
2022/03/01 07:28:32;;;;;;;;;;;6.50;99.10;;;;;;5112543;28;20027;-76
2022/03/01 07:30:59;;;;;;;;;;;6.50;98.90;;;;;;5112697;28;19946;-77
2022/03/01 07:33:27;;;;;;;;;;;6.60;98.80;;;;;;5108087;28;19932;-77
2022/03/01 07:35:54;;;;;;;;;;;6.60;98.90;;;;;;5101672;28;19930;-76
2022/03/01 07:38:21;;;;;;;;;;;6.70;98.90;;;;;;5105266;28;19935;-79
2022/03/01 07:40:48;;;;;;;;;;;7.00;99.00;;;;;;5578983;22;20437;-76
2022/03/01 07:43:14;;;;;;;;;;;7.20;99.50;;;;;;5053844;28;19998;-76
2022/03/01 07:45:41;;;;;;;;;;;7.40;99.90;;;;;;5052354;28;20321;-76
2022/03/01 07:48:10;;;;;;;;;;;8.10;99.90;;;;;;5045374;28;19928;-76
2022/03/01 07:50:38;;;;;;;;;;;8.60;98.90;;;;;;5045960;28;19975;-76
2022/03/01 07:53:05;;;;;;;;;;;8.90;98.30;;;;;;5048832;28;19929;-76
2022/03/01 07:55:34;;;;;;;;;;;10.40;98.00;;;;;;5040214;28;19928;-77
2022/03/01 08:00:35;;;;;;;;;;;8.70;96.30;;;;;;5009709;28;19936;-80
2022/03/01 08:03:01;;;;;;;;;;;11.10;97.10;;;;;;5002850;28;19936;-74
2022/03/01 08:05:28;;;;;;;;;;;8.50;96.50;;;;;;4984612;28;20024;-75
2022/03/01 08:07:58;;;;;;;;;;;8.20;96.30;;;;;;5007258;28;20072;-76
2022/03/01 08:10:25;;;;;;;;;;;8.20;96.50;;;;;;5034579;28;19929;-75
2022/03/01 08:12:51;;;;;;;;;;;8.10;96.70;;;;;;5003610;28;20294;-74
2022/03/01 08:15:18;;;;;;;;;;;8.10;96.90;;;;;;5002085;28;19936;-76
2022/03/01 08:17:51;;;;;;;;;;;8.30;97.00;;;;;;5019728;28;19937;-77
2022/03/01 08:20:17;;;;;;;;;;;8.80;98.00;;;;;;5023551;28;19939;-77
2022/03/01 08:22:44;;;;;;;;;;;9.20;98.10;;;;;;5026005;28;19929;-77
2022/03/01 08:25:13;;;;;;;;;;;10.60;97.20;;;;;;5025000;28;20067;-78
2022/03/01 08:27:40;;;;;;;;;;;9.80;96.60;;;;;;5005255;28;20322;-78
2022/03/01 08:30:07;;;;;;;;;;;10.10;96.40;;;;;;5028360;28;19987;-78
2022/03/01 08:32:34;;;;;;;;;;;10.20;95.70;;;;;;4999985;28;19937;-77
2022/03/01 08:35:00;;;;;;;;;;;10.10;94.40;;;;;;5022686;28;19929;-76
2022/03/01 08:37:27;;;;;;;;;;;10.00;94.20;;;;;;5020786;28;19928;-77
2022/03/01 08:39:54;;;;;;;;;;;10.00;94.80;;;;;;5005389;28;20452;-82
2022/03/01 08:42:22;;;;;;;;;;;10.00;94.90;;;;;;5024332;28;20448;-77
2022/03/01 08:44:49;;;;;;;;;;;10.10;94.70;;;;;;5019957;28;19925;-77
2022/03/01 08:47:16;;;;;;;;;;;10.10;93.90;;;;;;5016336;28;19929;-81
2022/03/01 08:49:42;;;;;;;;;;;10.10;93.50;;;;;;5026212;28;19933;-79
2022/03/01 08:52:09;;;;;;;;;;;10.10;93.40;;;;;;5003389;28;19944;-78
2022/03/01 08:54:36;;;;;;;;;;;10.10;92.80;;;;;;5024251;28;19929;-79
2022/03/01 08:57:03;;;;;;;;;;;9.50;93.40;;;;;;5021532;28;19933;-77
2022/03/01 08:59:31;;;;;;;;;;;10.20;93.10;;;;;;5008118;28;19929;-76
2022/03/01 09:01:58;;;;;;;;;;;10.20;93.40;;;;;;5012860;28;20047;-77
2022/03/01 09:04:25;;;;;;;;;;;10.40;94.00;;;;;;5020914;28;19929;-76
2022/03/01 09:06:51;;;;;;;;;;;10.50;93.90;;;;;;5017954;28;19932;-78
2022/03/01 09:09:18;;;;;;;;;;;10.60;93.20;;;;;;5005286;28;20371;-77
2022/03/01 09:11:45;;;;;;;;;;;10.80;93.50;;;;;;5014434;28;19936;-77
2022/03/01 09:14:11;;;;;;;;;;;10.80;93.00;;;;;;5020275;28;20406;-78
2022/03/01 09:16:40;;;;;;;;;;;10.10;92.20;;;;;;5001210;28;20247;-77
2022/03/01 09:19:08;;;;;;;;;;;10.60;90.60;;;;;;5025104;28;19925;-75
2022/03/01 09:21:35;;;;;;;;;;;10.50;91.20;;;;;;5021965;28;19951;-77
2022/03/01 09:24:02;;;;;;;;;;;10.30;91.90;;;;;;5019546;28;19936;-77
2022/03/01 09:26:29;;;;;;;;;;;10.20;91.50;;;;;;5024555;28;19929;-77
2022/03/01 09:28:55;;;;;;;;;;;10.20;92.00;;;;;;5022177;28;19979;-77
2022/03/01 09:31:22;;;;;;;;;;;10.20;92.10;;;;;;5012438;28;19933;-82
2022/03/01 09:33:50;;;;;;;;;;;10.20;91.60;;;;;;5009410;28;19929;-75
2022/03/01 09:36:17;;;;;;;;;;;10.20;91.40;;;;;;5017833;28;19930;-76
2022/03/01 09:38:45;;;;;;;;;;;10.20;91.90;;;;;;5002731;28;19965;-75
2022/03/01 09:41:12;;;;;;;;;;;10.20;92.10;;;;;;5014196;28;19929;-76
2022/03/01 09:43:39;;;;;;;;;;;9.40;92.10;;;;;;5011802;28;20365;-79
2022/03/01 09:46:07;;;;;;;;;;;10.50;91.70;;;;;;5020520;28;19933;-76
2022/03/01 09:48:34;;;;;;;;;;;10.50;91.90;;;;;;5022398;28;19932;-76
2022/03/01 09:51:02;;;;;;;;;;;10.40;91.30;;;;;;4999414;28;19933;-78
2022/03/01 09:53:29;;;;;;;;;;;10.50;91.00;;;;;;5018812;28;19976;-79
2022/03/01 09:55:56;;;;;;;;;;;10.50;91.20;;;;;;5005767;28;19925;-77
2022/03/01 09:58:23;;;;;;;;;;;10.80;91.40;;;;;;5023374;28;19929;-77
2022/03/01 10:00:50;;;;;;;;;;;10.90;91.40;;;;;;5016096;28;19929;-77
2022/03/01 10:03:18;;;;;;;;;;;11.20;91.30;;;;;;5012393;28;19933;-77
2022/03/01 10:05:45;;;;;;;;;;;11.40;91.10;;;;;;5019584;28;19940;-78
2022/03/01 10:08:14;;;;;;;;;;;11.90;92.10;;;;;;5017640;28;19953;-79
2022/03/01 10:10:41;;;;;;;;;;;11.90;91.90;;;;;;5017029;28;19925;-76
2022/03/01 10:13:08;;;;;;;;;;;12.00;91.00;;;;;;5023416;28;19925;-80
2022/03/01 10:15:35;;;;;;;;;;;12.00;90.20;;;;;;5023022;28;20052;-76
2022/03/01 10:18:09;;;;;;;;;;;12.00;90.20;;;;;;5020870;28;19941;-78
2022/03/01 10:20:36;;;;;;;;;;;12.00;90.30;;;;;;5017653;28;19930;-77
2022/03/01 10:23:03;;;;;;;;;;;12.00;90.30;;;;;;5018404;28;19936;-76
2022/03/01 10:25:31;;;;;;;;;;;12.00;90.30;;;;;;5010813;28;20226;-76
2022/03/01 10:27:58;;;;;;;;;;;12.20;89.00;;;;;;5017268;28;19929;-80
2022/03/01 10:30:26;;;;;;;;;;;12.20;89.50;;;;;;5017572;28;20428;-77
2022/03/01 10:33:02;;;;;;;;;;;12.30;89.50;;;;;;5019478;28;19933;-77
2022/03/01 10:35:29;;;;;;;;;;;12.40;90.10;;;;;;5017386;28;20028;-76
2022/03/01 10:37:56;;;;;;;;;;;12.70;90.10;;;;;;4999375;28;19929;-77
2022/03/01 10:40:23;;;;;;;;;;;12.60;90.20;;;;;;5024119;28;19929;-78
2022/03/01 10:43:01;;;;;;;;;;;12.70;89.60;;;;;;5015733;28;19929;-77
2022/03/01 10:45:32;;;;;;;;;;;12.60;89.30;;;;;;5018240;28;20023;-77
2022/03/01 10:47:59;;;;;;;;;;;12.60;86.60;;;;;;5024498;28;19952;-80
2022/03/01 10:50:26;;;;;;;;;;;12.60;86.90;;;;;;5023080;28;19995;-76
2022/03/01 10:52:52;;;;;;;;;;;12.70;87.60;;;;;;5019474;28;19945;-78
2022/03/01 10:55:22;;;;;;;;;;;12.80;87.80;;;;;;5024704;28;19925;-84
2022/03/01 10:57:56;;;;;;;;;;;12.90;88.10;;;;;;5021952;28;19953;-77
2022/03/01 11:00:25;;;;;;;;;;;12.90;87.10;;;;;;5023267;28;19936;-79
2022/03/01 11:02:51;;;;;;;;;;;13.00;87.70;;;;;;5025699;28;19926;-77
2022/03/01 11:05:18;;;;;;;;;;;12.50;87.00;;;;;;5019406;28;20306;-78
2022/03/01 11:07:47;;;;;;;;;;;13.10;87.90;;;;;;5015226;28;19926;-76
2022/03/01 11:10:14;;;;;;;;;;;13.00;84.90;;;;;;5022051;28;20044;-77
2022/03/01 11:12:42;;;;;;;;;;;12.90;84.50;;;;;;5021739;28;20346;-77
2022/03/01 11:15:12;;;;;;;;;;;12.80;85.00;;;;;;5020182;28;19940;-79
2022/03/01 11:17:44;;;;;;;;;;;12.80;85.00;;;;;;5021823;28;20413;-79
2022/03/01 11:20:14;;;;;;;;;;;12.60;83.80;;;;;;5009552;28;20374;-77
2022/03/01 11:22:43;;;;;;;;;;;12.70;84.30;;;;;;5032146;28;20439;-82
2022/03/01 11:25:15;;;;;;;;;;;12.80;84.80;;;;;;5027027;28;19959;-76
2022/03/01 11:27:43;;;;;;;;;;;12.90;84.00;;;;;;5020650;28;20449;-77
2022/03/01 11:30:11;;;;;;;;;;;13.10;83.20;;;;;;5024165;28;19925;-76
2022/03/01 11:32:38;;;;;;;;;;;12.70;82.50;;;;;;5020285;28;20314;-79
2022/03/01 11:35:06;;;;;;;;;;;13.20;83.70;;;;;;5002181;28;19941;-79
2022/03/01 11:37:33;;;;;;;;;;;13.30;84.20;;;;;;5000247;28;20461;-79
2022/03/01 11:40:04;;;;;;;;;;;13.50;83.20;;;;;;5008713;28;19925;-76
2022/03/01 11:42:34;;;;;;;;;;;13.50;83.20;;;;;;5031089;28;19929;-81
2022/03/01 11:45:08;;;;;;;;;;;13.70;82.20;;;;;;5019291;28;19975;-78
2022/03/01 11:47:35;;;;;;;;;;;13.80;80.70;;;;;;5020855;28;19977;-77
2022/03/01 11:50:11;;;;;;;;;;;13.70;80.40;;;;;;5022745;28;19929;-76
2022/03/01 11:52:49;;;;;;;;;;;13.60;81.00;;;;;;5021587;28;19926;-77
2022/03/01 11:55:16;;;;;;;;;;;13.40;80.30;;;;;;5021127;28;19928;-77
2022/03/01 11:57:43;;;;;;;;;;;13.20;79.20;;;;;;5021865;28;19937;-80
2022/03/01 12:00:14;;;;;;;;;;;13.20;79.80;;;;;;5007289;28;19940;-84
2022/03/01 12:02:44;;;;;;;;;;;13.60;80.50;;;;;;5033100;28;19928;-76
2022/03/01 12:05:21;;;;;;;;;;;13.10;79.80;;;;;;5022117;28;19936;-78
2022/03/01 12:07:50;;;;;;;;;;;13.10;79.90;;;;;;5022492;28;20009;-77
2022/03/01 12:10:20;;;;;;;;;;;13.00;80.30;;;;;;5027501;28;19933;-76
2022/03/01 12:12:47;;;;;;;;;;;13.10;81.00;;;;;;5025540;28;19925;-76
2022/03/01 12:15:16;;;;;;;;;;;13.10;80.90;;;;;;5013301;28;20300;-74
2022/03/01 12:17:43;;;;;;;;;;;13.20;81.70;;;;;;5024293;28;19957;-75
2022/03/01 12:20:11;;;;;;;;;;;13.40;81.10;;;;;;5532576;22;19972;-75
2022/03/01 12:22:49;;;;;;;;;;;13.40;81.00;;;;;;5025767;28;20023;-74
2022/03/01 12:25:16;;;;;;;;;;;13.30;78.80;;;;;;5028027;28;20074;-74
2022/03/01 12:27:43;;;;;;;;;;;13.30;79.70;;;;;;5027462;28;19929;-75
2022/03/01 12:30:11;;;;;;;;;;;13.30;80.80;;;;;;5013398;28;19929;-74
2022/03/01 12:32:39;;;;;;;;;;;13.40;80.10;;;;;;5005610;28;20247;-74
2022/03/01 12:35:06;;;;;;;;;;;13.50;80.00;;;;;;4996349;28;20379;-75
2022/03/01 12:37:33;;;;;;;;;;;13.70;80.00;;;;;;5001700;28;19930;-75
2022/03/01 12:40:01;;;;;;;;;;;13.70;79.20;;;;;;4998563;28;19933;-75
2022/03/01 12:42:29;;;;;;;;;;;13.70;80.00;;;;;;4996832;28;19933;-75
2022/03/01 12:44:56;;;;;;;;;;;13.70;77.30;;;;;;4999085;28;19929;-74
2022/03/01 12:47:23;;;;;;;;;;;13.60;78.10;;;;;;4980219;28;19926;-74
2022/03/01 12:49:50;;;;;;;;;;;13.50;77.70;;;;;;5003445;28;19980;-79
2022/03/01 12:52:18;;;;;;;;;;;13.50;77.90;;;;;;5000240;28;20270;-76
2022/03/01 12:54:47;;;;;;;;;;;13.40;78.70;;;;;;4997244;28;19937;-77
2022/03/01 12:57:15;;;;;;;;;;;13.50;78.80;;;;;;4999330;28;19933;-81
2022/03/01 12:59:42;;;;;;;;;;;13.50;78.90;;;;;;5004405;28;19940;-80
2022/03/01 13:02:09;;;;;;;;;;;13.50;79.00;;;;;;5006549;28;20003;-79
2022/03/01 13:04:37;;;;;;;;;;;13.60;78.80;;;;;;5001252;28;19926;-78
2022/03/01 13:07:04;;;;;;;;;;;13.70;79.00;;;;;;4999913;28;19973;-77
2022/03/01 13:09:31;;;;;;;;;;;13.70;78.50;;;;;;4997201;28;19934;-77
2022/03/01 13:11:59;;;;;;;;;;;13.80;78.70;;;;;;4996544;28;20361;-77
2022/03/01 13:14:27;;;;;;;;;;;13.70;77.90;;;;;;5004456;28;20416;-78
2022/03/01 13:16:55;;;;;;;;;;;13.80;77.90;;;;;;5002536;28;20058;-80
2022/03/01 13:19:27;;;;;;;;;;;13.80;78.20;;;;;;4985268;28;19941;-77
2022/03/01 13:21:56;;;;;;;;;;;13.70;78.00;;;;;;5007217;28;19941;-80
2022/03/01 13:24:23;;;;;;;;;;;14.40;79.40;;;;;;5003321;28;19936;-83
2022/03/01 13:26:50;;;;;;;;;;;13.90;78.80;;;;;;5004373;28;19925;-74
2022/03/01 13:29:18;;;;;;;;;;;14.10;76.60;;;;;;5015354;28;20004;-75
2022/03/01 13:31:49;;;;;;;;;;;14.10;77.20;;;;;;5001329;28;20387;-74
2022/03/01 13:34:17;;;;;;;;;;;14.20;77.90;;;;;;4997412;28;19933;-74
2022/03/01 13:36:49;;;;;;;;;;;14.20;77.90;;;;;;4999847;28;19934;-75
2022/03/01 13:39:16;;;;;;;;;;;14.30;77.30;;;;;;4982006;28;20245;-75
2022/03/01 13:41:44;;;;;;;;;;;14.30;78.50;;;;;;4999419;28;19964;-75
2022/03/01 13:44:11;;;;;;;;;;;14.40;76.90;;;;;;4991247;28;20525;-73
2022/03/01 13:46:38;;;;;;;;;;;14.90;77.20;;;;;;4989906;28;20351;-73
2022/03/01 13:49:07;;;;;;;;;;;14.10;74.60;;;;;;5515821;22;20130;-74
2022/03/01 13:51:34;;;;;;;;;;;14.10;75.00;;;;;;5012145;28;19940;-73
2022/03/01 13:54:10;;;;;;;;;;;14.00;74.90;;;;;;5012753;28;19933;-74
2022/03/01 13:56:39;;;;;;;;;;;13.90;75.90;;;;;;5016280;28;21728;-74
2022/03/01 13:59:06;;;;;;;;;;;13.90;76.20;;;;;;5002143;28;20718;-73
2022/03/01 14:01:32;;;;;;;;;;;14.00;76.60;;;;;;4997057;28;19937;-74
2022/03/01 14:04:03;;;;;;;;;;;14.30;76.50;;;;;;5032038;22;19929;-83
2022/03/01 14:06:32;;;;;;;;;;;14.30;76.10;;;;;;5050099;28;19966;-83
2022/03/01 14:09:00;;;;;;;;;;;14.50;76.60;;;;;;5056803;28;19936;-86
2022/03/01 14:11:30;;;;;;;;;;;14.40;76.00;;;;;;5052175;28;19944;-86
2022/03/01 14:13:56;;;;;;;;;;;14.50;75.40;;;;;;5058805;28;19933;-86
2022/03/01 14:16:25;;;;;;;;;;;14.60;74.20;;;;;;5052493;28;19913;-86
2022/03/01 14:18:52;;;;;;;;;;;14.60;74.30;;;;;;5051919;28;19912;-86
2022/03/01 14:21:21;;;;;;;;;;;14.70;75.40;;;;;;5034470;28;19936;-86
2022/03/01 14:23:49;;;;;;;;;;;14.70;75.30;;;;;;5049234;28;19925;-86
2022/03/01 14:26:16;;;;;;;;;;;14.70;74.60;;;;;;5018019;28;20051;-86
2022/03/01 14:28:51;;;;;;;;;;;14.70;75.90;;;;;;5044012;28;20238;-87
2022/03/01 14:31:18;;;;;;;;;;;14.70;75.10;;;;;;5044040;28;20439;-86
2022/03/01 14:33:45;;;;;;;;;;;14.60;75.70;;;;;;5044341;28;19960;-87
2022/03/01 14:36:12;;;;;;;;;;;14.60;75.40;;;;;;5025661;28;19933;-87
2022/03/01 14:38:41;;;;;;;;;;;14.60;74.60;;;;;;5046047;28;19975;-87
2022/03/01 14:41:10;;;;;;;;;;;14.50;74.50;;;;;;5063739;28;19923;-87